Terminal Aerodrome Forecast
Issued by NWS

Home | Current Version | Previous Version | Text Only | Print | Product List | Glossary On
Versions: 1 2 3 4 5 6 7 8 9 10 11 12 13 14 15
000
FTUS46 KLOX 250546
TAFPRB
TAF
KPRB 250546Z 2506/2606 32012KT P6SM SKC
     FM250800 34006KT P6SM SKC
     FM251200 VRB03KT 4SM BR VCFG OVC004
     FM251700 35005KT P6SM SKC
     FM252200 07008KT P6SM SKC
     FM260400 32006KT P6SM SKC=

USA.gov is the U.S. government's official web portal to all federal, state and local government web resources and services.